createdAt,value
2018-10-06T00:00:32.264Z,10.23
2018-10-06T00:04:40.513Z,11.83
2018-10-06T00:08:48.786Z,11.50
2018-10-06T00:12:57.080Z,9.60
2018-10-06T00:17:05.453Z,10.17
2018-10-06T00:21:13.721Z,11.40
2018-10-06T00:25:21.997Z,10.70
2018-10-06T00:29:30.410Z,9.73
2018-10-06T00:33:38.714Z,9.90
2018-10-06T00:37:46.955Z,10.30
2018-10-06T00:41:55.196Z,9.57
2018-10-06T00:46:03.283Z,9.40
2018-10-06T00:50:11.581Z,10.50
2018-10-06T00:54:19.891Z,9.63
2018-10-06T00:58:28.133Z,9.77
2018-10-06T01:02:36.566Z,9.30
2018-10-06T01:06:44.822Z,10.00
2018-10-06T01:10:53.138Z,11.47
2018-10-06T01:15:16.460Z,9.93
2018-10-06T01:19:24.734Z,11.13
2018-10-06T01:23:33.112Z,10.10
2018-10-06T01:27:41.322Z,10.23
2018-10-06T01:31:49.704Z,11.63
2018-10-06T01:35:57.956Z,11.00
2018-10-06T01:40:06.274Z,10.60
2018-10-06T01:44:14.535Z,11.70
2018-10-06T01:48:22.794Z,10.97
2018-10-06T01:52:31.411Z,11.67
2018-10-06T01:56:39.676Z,11.87
2018-10-06T02:00:48.030Z,11.00
2018-10-06T02:04:56.301Z,10.47
2018-10-06T02:09:05.601Z,10.97
2018-10-06T02:13:13.851Z,10.53
2018-10-06T02:17:22.120Z,12.93
2018-10-06T02:21:30.617Z,11.90
2018-10-06T02:25:38.892Z,12.23
2018-10-06T02:29:47.153Z,10.70
2018-10-06T02:33:55.443Z,11.27
2018-10-06T02:38:03.909Z,10.67
2018-10-06T02:42:12.204Z,11.60
2018-10-06T02:46:20.561Z,11.38
2018-10-06T02:50:30.056Z,13.00
2018-10-06T02:54:38.332Z,13.60
2018-10-06T02:58:46.719Z,11.50
2018-10-06T03:02:55.304Z,12.50
2018-10-06T03:07:03.570Z,11.43
2018-10-06T03:11:11.828Z,11.17
2018-10-06T03:15:20.149Z,10.80
2018-10-06T03:19:28.519Z,11.10
2018-10-06T03:23:36.809Z,11.70
2018-10-06T03:27:45.204Z,12.20
2018-10-06T03:31:53.640Z,11.80
2018-10-06T03:36:01.917Z,11.97
2018-10-06T03:40:10.146Z,12.63
2018-10-06T03:44:18.408Z,12.13
2018-10-06T03:48:27.125Z,12.47
2018-10-06T03:52:35.357Z,12.63
2018-10-06T03:56:44.392Z,14.27
2018-10-06T04:00:52.708Z,12.60
2018-10-06T04:05:01.102Z,14.23
2018-10-06T04:09:09.472Z,13.07
2018-10-06T04:13:17.711Z,13.00
2018-10-06T04:17:26.224Z,11.30
2018-10-06T04:21:41.560Z,12.27
2018-10-06T04:25:49.793Z,12.27
2018-10-06T04:29:58.198Z,12.00
2018-10-06T04:34:06.440Z,12.83
2018-10-06T04:38:14.987Z,11.93
2018-10-06T04:42:23.387Z,12.50
2018-10-06T04:46:31.723Z,11.97
2018-10-06T04:50:40.040Z,12.03
2018-10-06T04:54:48.293Z,12.70
2018-10-06T04:58:57.048Z,10.93
2018-10-06T05:03:05.301Z,11.70
2018-10-06T05:07:13.734Z,12.37
2018-10-06T05:11:21.978Z,12.30
2018-10-06T05:15:30.359Z,11.30
2018-10-06T05:19:38.638Z,11.83
2018-10-06T05:23:46.919Z,11.50
2018-10-06T05:27:55.564Z,12.43
2018-10-06T05:32:03.829Z,12.97
2018-10-06T05:36:12.099Z,11.63
2018-10-06T05:40:20.373Z,12.47
2018-10-06T05:44:28.866Z,11.47
2018-10-06T05:48:37.132Z,10.60
2018-10-06T05:52:45.511Z,10.60
2018-10-06T05:56:53.988Z,12.20
2018-10-06T06:01:02.312Z,11.50
2018-10-06T06:05:14.421Z,11.20
2018-10-06T06:09:23.215Z,10.07
2018-10-06T06:13:31.516Z,13.07
2018-10-06T06:17:40.186Z,11.40
2018-10-06T06:21:48.454Z,12.53
2018-10-06T06:25:57.238Z,10.70
2018-10-06T06:30:05.545Z,11.60
2018-10-06T06:34:14.037Z,11.07
2018-10-06T06:38:22.407Z,10.27
2018-10-06T06:42:30.720Z,12.07
2018-10-06T06:46:38.942Z,11.67
2018-10-06T06:50:47.330Z,11.47
2018-10-06T06:54:56.070Z,11.30
2018-10-06T06:59:04.324Z,11.73
2018-10-06T07:03:12.584Z,11.23
2018-10-06T07:07:20.784Z,11.07
2018-10-06T07:11:29.179Z,12.03
2018-10-06T07:15:37.472Z,12.50
2018-10-06T07:19:45.938Z,10.40
2018-10-06T07:23:54.738Z,10.30
2018-10-06T07:28:02.995Z,10.40
2018-10-06T07:32:11.253Z,10.60
2018-10-06T07:36:19.538Z,10.50
2018-10-06T07:40:28.080Z,10.03
2018-10-06T07:44:36.368Z,10.23
2018-10-06T07:48:44.745Z,9.30
2018-10-06T07:52:53.446Z,11.20
2018-10-06T07:57:01.716Z,9.60
2018-10-06T08:01:10.013Z,10.20
2018-10-06T08:05:18.305Z,10.20
2018-10-06T08:09:26.843Z,9.50
2018-10-06T08:13:35.093Z,9.47
2018-10-06T08:17:43.420Z,11.10
2018-10-06T08:21:51.683Z,9.80
2018-10-06T08:26:00.021Z,10.53
2018-10-06T08:30:08.316Z,10.50
2018-10-06T08:34:16.604Z,9.53
2018-10-06T08:38:25.188Z,10.30
2018-10-06T08:42:33.508Z,10.10
2018-10-06T08:46:41.729Z,9.97
2018-10-06T08:50:49.989Z,11.10
2018-10-06T08:54:58.284Z,10.70
2018-10-06T08:59:06.845Z,11.33
2018-10-06T09:03:15.122Z,10.90
2018-10-06T09:07:23.656Z,10.48
2018-10-06T09:11:31.935Z,10.23
2018-10-06T09:15:40.191Z,10.83
2018-10-06T09:19:48.819Z,11.40
2018-10-06T09:23:57.110Z,11.35
2018-10-06T09:28:05.395Z,13.40
2018-10-06T09:32:13.690Z,10.77
2018-10-06T09:36:22.599Z,10.87
2018-10-06T09:40:30.861Z,9.87
2018-10-06T09:44:39.206Z,12.47
2018-10-06T09:48:48.096Z,10.27
2018-10-06T09:52:56.420Z,11.77
2018-10-06T09:57:04.692Z,11.13
2018-10-06T10:01:18.277Z,9.07
2018-10-06T10:05:32.153Z,10.40
2018-10-06T10:09:40.221Z,9.77
2018-10-06T10:13:48.749Z,10.43
2018-10-06T10:17:57.098Z,9.28
2018-10-06T10:22:05.478Z,7.47
2018-10-06T10:26:13.737Z,7.27
2018-10-06T10:30:22.209Z,7.77
2018-10-06T10:34:30.551Z,7.63
2018-10-06T10:38:38.841Z,7.80
2018-10-06T10:42:47.498Z,7.27
2018-10-06T10:46:55.862Z,7.83
2018-10-06T10:51:04.129Z,6.93
2018-10-06T10:55:12.414Z,7.20
2018-10-06T10:59:21.335Z,6.57
2018-10-06T11:03:29.580Z,6.07
2018-10-06T11:07:38.003Z,7.00
2018-10-06T11:11:47.268Z,6.30
2018-10-06T11:15:55.615Z,6.77
2018-10-06T11:20:03.923Z,6.27
2018-10-06T11:24:12.548Z,6.33
2018-10-06T11:28:21.297Z,6.27
2018-10-06T11:32:29.564Z,6.40
2018-10-06T11:36:38.249Z,6.60
2018-10-06T11:40:47.003Z,6.13
2018-10-06T11:44:55.361Z,6.23
2018-10-06T11:49:03.647Z,5.67
2018-10-06T11:53:11.949Z,5.23
2018-10-06T11:57:20.583Z,6.67
2018-10-06T12:01:28.831Z,6.05
2018-10-06T12:05:37.225Z,5.10
2018-10-06T12:09:45.474Z,7.60
2018-10-06T12:13:53.900Z,5.73
2018-10-06T12:18:02.123Z,5.90
2018-10-06T12:22:10.454Z,5.80
2018-10-06T12:26:19.190Z,5.57
2018-10-06T12:30:27.429Z,5.70
2018-10-06T12:34:35.741Z,5.60
2018-10-06T12:38:44.025Z,6.20
2018-10-06T12:42:52.570Z,5.40
2018-10-06T12:47:00.865Z,5.60
2018-10-06T12:51:09.320Z,5.20
2018-10-06T12:55:17.948Z,5.67
2018-10-06T12:59:26.229Z,4.67
2018-10-06T13:03:34.837Z,4.43
2018-10-06T13:07:43.146Z,4.60
2018-10-06T13:11:51.925Z,4.30
2018-10-06T13:16:00.149Z,4.47
2018-10-06T13:20:08.597Z,4.00
2018-10-06T13:24:17.068Z,4.27
2018-10-06T13:28:25.348Z,4.03
2018-10-06T13:32:33.644Z,4.03
2018-10-06T13:36:41.909Z,4.17
2018-10-06T13:40:50.715Z,3.47
2018-10-06T13:44:58.960Z,3.97
2018-10-06T13:49:07.581Z,4.30
2018-10-06T13:53:16.411Z,3.87
2018-10-06T13:57:24.903Z,4.77
2018-10-06T14:01:33.169Z,3.83
2018-10-06T14:05:41.383Z,4.87
2018-10-06T14:09:49.837Z,3.90
2018-10-06T14:13:58.104Z,3.53
2018-10-06T14:18:06.436Z,4.10
2018-10-06T14:22:14.914Z,4.00
2018-10-06T14:26:23.448Z,4.80
2018-10-06T14:30:31.718Z,3.65
2018-10-06T14:34:40.162Z,4.40
2018-10-06T14:38:48.848Z,4.03
2018-10-06T14:42:57.188Z,3.90
2018-10-06T14:47:05.530Z,4.00
2018-10-06T14:51:13.737Z,4.53
2018-10-06T14:55:22.060Z,5.13
2018-10-06T14:59:30.310Z,4.47
2018-10-06T15:03:38.625Z,4.87
2018-10-06T15:07:46.857Z,4.33
2018-10-06T15:11:55.645Z,5.13
2018-10-06T15:16:04.023Z,4.90
2018-10-06T15:20:12.384Z,5.30
2018-10-06T15:24:21.045Z,6.60
2018-10-06T15:28:29.325Z,5.22
2018-10-06T15:32:37.564Z,5.20
2018-10-06T15:36:45.945Z,5.23
2018-10-06T15:40:54.534Z,4.40
2018-10-06T15:45:02.987Z,4.97
2018-10-06T15:49:11.491Z,4.67
2018-10-06T15:53:20.155Z,4.03
2018-10-06T15:57:28.492Z,4.37
2018-10-06T16:01:36.772Z,4.67
2018-10-06T16:05:45.036Z,4.50
2018-10-06T16:09:53.611Z,4.80
2018-10-06T16:14:01.883Z,4.57
2018-10-06T16:18:10.299Z,3.93
2018-10-06T16:22:18.590Z,4.67
2018-10-06T16:26:26.899Z,4.30
2018-10-06T16:30:35.158Z,4.00
2018-10-06T16:34:43.459Z,4.60
2018-10-06T16:38:51.812Z,4.87
2018-10-06T16:43:00.449Z,6.00
2018-10-06T16:47:08.771Z,4.83
2018-10-06T16:51:17.080Z,4.70
2018-10-06T16:55:25.627Z,5.10
2018-10-06T16:59:34.015Z,4.57
2018-10-06T17:03:42.172Z,4.90
2018-10-06T17:07:51.549Z,6.17
2018-10-06T17:11:59.853Z,7.10
2018-10-06T17:16:08.254Z,5.70
2018-10-06T17:20:16.547Z,6.13
2018-10-06T17:24:25.108Z,6.20
2018-10-06T17:28:33.387Z,6.93
2018-10-06T17:32:41.681Z,6.80
2018-10-06T17:36:50.346Z,7.60
2018-10-06T17:40:58.708Z,6.50
2018-10-06T17:45:07.136Z,6.10
2018-10-06T17:49:15.396Z,6.07
2018-10-06T17:53:23.938Z,6.63
2018-10-06T17:57:32.204Z,7.60
2018-10-06T18:01:41.306Z,6.77
2018-10-06T18:05:50.041Z,6.27
2018-10-06T18:09:58.404Z,6.90
2018-10-06T18:14:06.590Z,7.60
2018-10-06T18:18:14.925Z,8.83
2018-10-06T18:22:23.923Z,7.67
2018-10-06T18:26:32.168Z,7.53
2018-10-06T18:30:40.667Z,8.47
2018-10-06T18:34:49.025Z,8.43
2018-10-06T18:38:57.525Z,8.55
2018-10-06T18:43:05.795Z,9.70
2018-10-06T18:47:14.075Z,7.87
2018-10-06T18:51:22.813Z,7.90
2018-10-06T18:55:31.097Z,9.20
2018-10-06T18:59:39.408Z,8.63
2018-10-06T19:03:47.710Z,8.28
2018-10-06T19:07:56.121Z,7.93
2018-10-06T19:12:04.363Z,8.50
2018-10-06T19:16:12.764Z,9.00
2018-10-06T19:20:21.667Z,8.17
2018-10-06T19:24:29.916Z,9.13
2018-10-06T19:28:38.240Z,9.23
2018-10-06T19:32:46.536Z,11.00
2018-10-06T19:36:54.912Z,10.70
2018-10-06T19:41:03.140Z,12.60
2018-10-06T19:45:11.617Z,15.00
2018-10-06T19:49:20.334Z,13.80
2018-10-06T19:53:28.727Z,12.37
2018-10-06T19:57:37.015Z,12.63
2018-10-06T20:01:45.272Z,12.00
2018-10-06T20:05:54.310Z,12.07
2018-10-06T20:10:02.324Z,11.20
2018-10-06T20:14:10.856Z,12.20
2018-10-06T20:18:19.433Z,11.27
2018-10-06T20:22:27.740Z,12.00
2018-10-06T20:26:36.043Z,13.20
2018-10-06T20:30:44.317Z,13.00
2018-10-06T20:34:53.285Z,13.50
2018-10-06T20:39:01.559Z,13.17
2018-10-06T20:43:09.907Z,12.50
2018-10-06T20:47:18.230Z,14.17
2018-10-06T20:51:26.613Z,16.17
2018-10-06T20:55:34.848Z,16.80
2018-10-06T20:59:43.140Z,17.87
2018-10-06T21:03:51.455Z,20.10
2018-10-06T21:07:59.745Z,19.57
2018-10-06T21:12:08.533Z,23.33
2018-10-06T21:16:16.773Z,25.87
2018-10-06T21:20:25.120Z,25.27
2018-10-06T21:24:33.736Z,28.30
2018-10-06T21:28:42.044Z,30.90
2018-10-06T21:32:50.346Z,33.17
2018-10-06T21:36:58.673Z,34.63
2018-10-06T21:41:07.076Z,37.80
2018-10-06T21:45:15.354Z,39.03
2018-10-06T21:49:23.711Z,38.60
2018-10-06T21:53:32.301Z,42.13
2018-10-06T21:57:40.572Z,39.97
2018-10-06T22:01:48.824Z,39.50
2018-10-06T22:05:57.110Z,37.23
2018-10-06T22:10:05.841Z,41.73
2018-10-06T22:14:14.131Z,40.00
2018-10-06T22:18:22.491Z,41.35
2018-10-06T22:22:31.141Z,41.27
2018-10-06T22:26:39.659Z,39.67
2018-10-06T22:30:47.933Z,39.00
2018-10-06T22:34:56.364Z,40.67
2018-10-06T22:39:06.428Z,42.03
2018-10-06T22:43:14.675Z,45.00
2018-10-06T22:47:23.096Z,39.50
2018-10-06T22:51:31.448Z,45.00
2018-10-06T22:55:39.759Z,43.83
2018-10-06T22:59:48.029Z,41.33
2018-10-06T23:03:56.307Z,42.87
2018-10-06T23:08:04.823Z,41.27
2018-10-06T23:12:13.104Z,44.93
2018-10-06T23:16:21.436Z,45.17
2018-10-06T23:20:29.838Z,43.15
2018-10-06T23:24:38.192Z,42.37
2018-10-06T23:28:46.445Z,44.23
2018-10-06T23:32:54.769Z,42.47
2018-10-06T23:37:03.448Z,40.37
2018-10-06T23:41:11.737Z,39.23
2018-10-06T23:45:19.991Z,40.73
2018-10-06T23:49:28.285Z,43.30
2018-10-06T23:53:36.777Z,42.70
2018-10-06T23:57:45.028Z,45.13
